Relevés horaires Semmerzake (Belgique)


Relevés horaires à Semmerzake - Mardi 06 Juill. 2021
Heure UTC1 Température [°C] Vent [km/h] Hum. [%] Pres.4 [hPa] Visi. [Km] Nébu. [octa] Préc.5 [mm] Cond.
2m. Res. Ros. Dir.2 Vit. Moy. Raf.3
23:00 14.3 14.3 11.8 S 3.7 -- 7.4 85 1011.1(0.7/3h) 20 -- -- --
22:00 14.8 14.8 11.3 S 3.7 -- 7.4 80 1011.1(1.2/3h) 20 -- -- NA
21:00 15.4 15.4 10.2 SSO 3.7 -- 16.7 71 1010.8(1.7/3h) 20 -- -- --
20:00 16.5 16.5 9.2 SO 3.7 -- 14.8 62 1010.2(1.7/3h) 20 -- -- --
19:00 17.2 17.2 9.2 OSO 7.4 -- 16.7 59 1009.7(1.6/3h) 20 -- -- --
18:00 18.5 18.5 9.3 SO 7.4 -- 31.5 55 1009.1(1.7/3h) 20 -- 1/12h
NA
17:00 18.9 18.9 8.9 SO 13.0 -- 24.1 52 1008.5(1.7/3h) 20 -- -- --
16:00 18.9 18.9 10.9 SO 13.0 -- 27.8 60 1008.1(2.4/3h) 20 -- -- --
15:00 18.6 18.5 12.0 SO 14.8 -- 31.5 65 1007.3(2.5/3h) 20 -- -- NA
14:00 15.8 15.4 12.8 SSO 11.1 -- 24.1 82 1006.7(2.9/3h) 20 -- -- Il y a une bruine faible et continue à la station au moment de l'observation
13:00 17.7 17.6 11.7 SO 13.0 -- 31.5 68 1005.7(2.4/3h) 20 -- -- NA
12:00 17.7 17.4 11.3 SSO 14.8 -- 33.3 66 1004.7(2.2/3h) 20 -- trace/6h
Il y a de la pluie faible et continue à la station au moment de l'observation
11:00 18.6 18.4 11.4 SSO 16.7 -- 31.5 63 1003.7(1.7/3h) 20 -- -- --
10:00 17.7 17.1 10.7 SSO 20.4 -- 33.3 64 1003.2(1.4/3h) 20 -- -- --
09:00 18.0 17.6 10.6 SSO 18.5 -- 33.3 62 1002.3(0.8/3h) 16 -- -- --
08:00 18.6 18.5 11.4 SSO 14.8 -- 33.3 63 1002.1(0.8/3h) 20 -- -- --
07:00 17.7 17.4 11.6 SSO 14.8 -- 29.6 67 1001.8(0.8/3h) 19 -- -- --
06:00 16.9 16.6 12.3 SSO 13.0 -- 24.1 74 1001.5(0.9/3h) 19 -- -- NA
05:00 18.1 18.1 15.0 SSO 11.1 -- 22.2 82 1001.1(0.1/3h) 20 -- -- --
04:00 18.4 18.3 15.4 SSO 14.8 -- 24.1 83 1001(-1.0/3h) 20 -- -- --
03:00 18.0 18.0 15.8 S 7.4 -- 13.0 87 1000.6(-2.5/3h) 20 -- -- NA
02:00 17.1 17.1 15.5 SSE 5.6 -- 13.0 90 1001(-3.0/3h) 20 -- -- NA
01:00 16.8 16.8 15.4 SSE 7.4 -- 13.0 91 1001.8(-2.7/3h) 20 -- -- NA
00:00 16.7 16.7 15.4 S 5.6 -- 18.5 92 1003.2(-2.2/3h) 20 -- -- NA

1 Coordinated Universal Time. Actuellement il est 21:00 locale et 19:00 UTC.

2 Le vent souffle depuis la direction indiquée vers la direction oposée.

3 Les rafales max. sont disponible 40 min après l'heure du relevé.

4 Pour les stations d'altitude (plus de 600m) le géopotentiel du niveau le plus proche de la pression obligatoire est indiqué.

5 Les stations disposant d'un diffuseur peuvent indiquer "trace". Cela signifie que des précipitations ont touchés le sol mais que la quantité est inférieure à 0.1 mm.

Récapitulatif de la journée
Température [°C] Vent [km/h] Ensoleillement4 [h] Precipitations totale5 [mm] Pression [Hpa]
Min1 Max.2 Moy.3 Max. Min Max.
16.2 19.7 0 33.3 0 h 0 min 0 1000.6 1011.1

1 Température minimale relevée entre 18:00 UTC la veille et 18:00 UTC le jour donné.

2 Température maximale relevée entre 06:00 UTC le jour donné et 06:00 UTC le lendemain.

3 Vent moyen de la journée basé sur les relevés horaires.

4 Ensoleillement en heures relevé entre 06:00 UTC la veille et 06:00 UTC le jour donné.

5 Précipitations totales tombées entre 06:00 UTC la jour donné et 06:00 UTC le lendemain.

Graphiques horaires